createdAt,value
2023-05-08T00:00:28.098Z,94715.00
2023-05-08T00:01:28.100Z,94715.00
2023-05-08T00:02:28.212Z,94713.00
2023-05-08T00:03:28.284Z,94715.00
2023-05-08T00:04:28.204Z,94713.00
2023-05-08T00:05:28.156Z,94715.00
2023-05-08T00:06:28.173Z,94713.00
2023-05-08T00:07:28.185Z,94715.00
2023-05-08T00:08:28.216Z,94713.00
2023-05-08T00:09:28.273Z,94713.00
2023-05-08T00:10:28.290Z,94715.00
2023-05-08T00:11:28.272Z,94715.00
2023-05-08T00:12:28.276Z,94715.00
2023-05-08T00:13:28.269Z,94715.00
2023-05-08T00:14:28.320Z,94715.00
2023-05-08T00:15:28.456Z,94715.00
2023-05-08T00:16:28.345Z,94717.00
2023-05-08T00:17:28.354Z,94713.00
2023-05-08T00:18:28.366Z,94711.00
2023-05-08T00:19:28.395Z,94713.00
2023-05-08T00:20:28.379Z,94715.00
2023-05-08T00:21:28.455Z,94715.00
2023-05-08T00:22:28.409Z,94717.00
2023-05-08T00:23:28.420Z,94715.00
2023-05-08T00:24:28.445Z,94715.00
2023-05-08T00:25:28.490Z,94719.00
2023-05-08T00:26:28.538Z,94715.00
2023-05-08T00:27:28.496Z,94717.00
2023-05-08T00:28:28.484Z,94713.00
2023-05-08T00:29:28.515Z,94713.00
2023-05-08T00:30:28.536Z,94713.00
2023-05-08T00:31:28.591Z,94711.00
2023-05-08T00:32:28.624Z,94713.00
2023-05-08T00:33:28.568Z,94709.00
2023-05-08T00:34:28.590Z,94711.00
2023-05-08T00:35:28.607Z,94711.00
2023-05-08T00:36:28.611Z,94711.00
2023-05-08T00:37:28.665Z,94713.00
2023-05-08T00:38:28.651Z,94713.00
2023-05-08T00:39:28.867Z,94713.00
2023-05-08T00:40:28.807Z,94715.00
2023-05-08T00:41:28.730Z,94711.00
2023-05-08T00:42:28.757Z,94711.00
2023-05-08T00:43:28.774Z,94711.00
2023-05-08T00:44:28.800Z,94711.00
2023-05-08T00:45:28.853Z,94711.00
2023-05-08T00:46:28.892Z,94709.00
2023-05-08T00:47:28.864Z,94709.00
2023-05-08T00:48:28.914Z,94709.00
2023-05-08T00:49:28.905Z,94713.00
2023-05-08T00:50:28.988Z,94711.00
2023-05-08T00:51:28.962Z,94711.00
2023-05-08T00:52:28.967Z,94711.00
2023-05-08T00:53:28.986Z,94711.00
2023-05-08T00:54:29.029Z,94711.00
2023-05-08T00:55:29.059Z,94711.00
2023-05-08T00:56:29.081Z,94711.00
2023-05-08T00:57:29.095Z,94711.00
2023-05-08T00:58:29.100Z,94711.00
2023-05-08T00:59:29.152Z,94713.00
2023-05-08T01:00:29.202Z,94715.00
2023-05-08T01:01:29.197Z,94715.00
2023-05-08T01:02:29.245Z,94717.00
2023-05-08T01:03:29.352Z,94717.00
2023-05-08T01:04:29.223Z,94717.00
2023-05-08T01:05:29.241Z,94717.00
2023-05-08T01:06:29.290Z,94715.00
2023-05-08T01:07:29.306Z,94715.00
2023-05-08T01:08:29.339Z,94715.00
2023-05-08T01:09:29.358Z,94717.00
2023-05-08T01:10:29.379Z,94713.00
2023-05-08T01:11:29.421Z,94713.00
2023-05-08T01:12:29.424Z,94719.00
2023-05-08T01:13:29.481Z,94717.00
2023-05-08T01:14:29.502Z,94717.00
2023-05-08T01:15:29.521Z,94719.00
2023-05-08T01:16:29.647Z,94719.00
2023-05-08T01:17:29.620Z,94717.00
2023-05-08T01:18:29.650Z,94719.00
2023-05-08T01:19:29.613Z,94715.00
2023-05-08T01:20:29.648Z,94719.00
2023-05-08T01:21:29.723Z,94717.00
2023-05-08T01:22:29.675Z,94715.00
2023-05-08T01:23:29.716Z,94717.00
2023-05-08T01:24:29.776Z,94717.00
2023-05-08T01:25:29.746Z,94719.00
2023-05-08T01:26:29.781Z,94719.00
2023-05-08T01:27:29.820Z,94721.00
2023-05-08T01:28:29.832Z,94717.00
2023-05-08T01:29:29.892Z,94723.00
2023-05-08T01:30:29.899Z,94723.00
2023-05-08T01:31:29.888Z,94727.00
2023-05-08T01:32:30.044Z,94727.00
2023-05-08T01:33:29.996Z,94729.00
2023-05-08T01:34:29.938Z,94727.00
2023-05-08T01:35:29.964Z,94731.00
2023-05-08T01:36:29.988Z,94731.00
2023-05-08T01:37:30.019Z,94733.00
2023-05-08T01:38:30.135Z,94733.00
2023-05-08T01:39:30.067Z,94731.00
2023-05-08T01:40:30.079Z,94731.00
2023-05-08T01:41:30.123Z,94731.00
2023-05-08T01:42:30.137Z,94731.00
2023-05-08T01:43:30.191Z,94735.00
2023-05-08T01:44:30.187Z,94733.00
2023-05-08T01:45:30.204Z,94733.00
2023-05-08T01:46:30.251Z,94735.00
2023-05-08T01:47:30.267Z,94735.00
2023-05-08T01:48:30.234Z,94735.00
2023-05-08T01:49:30.212Z,94733.00
2023-05-08T01:50:30.183Z,94735.00
2023-05-08T01:51:30.179Z,94735.00
2023-05-08T01:52:30.150Z,94735.00
2023-05-08T01:53:30.212Z,94737.00
2023-05-08T01:54:30.139Z,94735.00
2023-05-08T01:55:30.157Z,94737.00
2023-05-08T01:56:30.173Z,94739.00
2023-05-08T01:57:30.117Z,94733.00
2023-05-08T01:58:30.143Z,94737.00
2023-05-08T01:59:30.128Z,94737.00
2023-05-08T02:00:30.189Z,94737.00
2023-05-08T02:01:30.120Z,94735.00
2023-05-08T02:02:30.301Z,94729.00
2023-05-08T02:03:30.163Z,94729.00
2023-05-08T02:04:30.092Z,94731.00
2023-05-08T02:05:30.081Z,94731.00
2023-05-08T02:06:30.120Z,94737.00
2023-05-08T02:07:30.141Z,94737.00
2023-05-08T02:08:30.206Z,94731.00
2023-05-08T02:09:30.193Z,94731.00
2023-05-08T02:10:30.214Z,94729.00
2023-05-08T02:11:30.268Z,94733.00
2023-05-08T02:12:30.313Z,94735.00
2023-05-08T02:13:30.329Z,94731.00
2023-05-08T02:14:30.353Z,94733.00
2023-05-08T02:15:30.357Z,94735.00
2023-05-08T02:16:30.441Z,94739.00
2023-05-08T02:17:30.421Z,94731.00
2023-05-08T02:18:30.425Z,94733.00
2023-05-08T02:19:30.618Z,94733.00
2023-05-08T02:20:30.496Z,94731.00
2023-05-08T02:21:30.510Z,94731.00
2023-05-08T02:22:30.626Z,94731.00
2023-05-08T02:23:30.581Z,94731.00
2023-05-08T02:24:30.607Z,94729.00
2023-05-08T02:25:30.650Z,94729.00
2023-05-08T02:26:30.680Z,94727.00
2023-05-08T02:27:30.731Z,94727.00
2023-05-08T02:28:30.740Z,94727.00
2023-05-08T02:29:30.762Z,94725.00
2023-05-08T02:30:30.773Z,94723.00
2023-05-08T02:31:43.024Z,94725.00
2023-05-08T02:32:43.889Z,94723.00
2023-05-08T02:33:30.846Z,94721.00
2023-05-08T02:34:30.786Z,94723.00
2023-05-08T02:35:30.786Z,94723.00
2023-05-08T02:36:31.093Z,94721.00
2023-05-08T02:37:30.828Z,94721.00
2023-05-08T02:38:30.770Z,94721.00
2023-05-08T02:39:30.769Z,94723.00
2023-05-08T02:40:30.762Z,94723.00
2023-05-08T02:41:30.758Z,94723.00
2023-05-08T02:42:30.727Z,94725.00
2023-05-08T02:43:30.820Z,94727.00
2023-05-08T02:44:30.751Z,94729.00
2023-05-08T02:45:30.713Z,94729.00
2023-05-08T02:46:30.840Z,94725.00
2023-05-08T02:47:30.752Z,94731.00
2023-05-08T02:48:30.739Z,94731.00
2023-05-08T02:49:30.760Z,94731.00
2023-05-08T02:50:30.778Z,94733.00
2023-05-08T02:51:30.833Z,94733.00
2023-05-08T02:52:30.836Z,94733.00
2023-05-08T02:53:30.839Z,94735.00
2023-05-08T02:54:30.928Z,94735.00
2023-05-08T02:55:30.891Z,94735.00
2023-05-08T02:56:30.932Z,94733.00
2023-05-08T02:57:31.004Z,94733.00
2023-05-08T02:58:30.980Z,94733.00
2023-05-08T02:59:31.023Z,94733.00
2023-05-08T03:00:31.194Z,94733.00
2023-05-08T03:01:31.107Z,94733.00
2023-05-08T03:02:31.129Z,94733.00
2023-05-08T03:03:31.224Z,94733.00
2023-05-08T03:04:31.238Z,94735.00
2023-05-08T03:05:31.197Z,94733.00
2023-05-08T03:06:31.298Z,94733.00
2023-05-08T03:07:31.315Z,94733.00
2023-05-08T03:08:31.289Z,94735.00
2023-05-08T03:09:31.362Z,94727.00
2023-05-08T03:10:31.383Z,94729.00
2023-05-08T03:11:31.405Z,94725.00
2023-05-08T03:12:31.429Z,94727.00
2023-05-08T03:13:33.035Z,94727.00
2023-05-08T03:14:31.525Z,94727.00
2023-05-08T03:15:31.531Z,94729.00
2023-05-08T03:16:31.707Z,94725.00
2023-05-08T03:17:31.651Z,94727.00
2023-05-08T03:18:31.610Z,94729.00
2023-05-08T03:19:31.689Z,94725.00
2023-05-08T03:20:31.683Z,94727.00
2023-05-08T03:21:31.916Z,94727.00
2023-05-08T03:22:31.773Z,94727.00
2023-05-08T03:23:31.791Z,94729.00
2023-05-08T03:24:31.878Z,94727.00
2023-05-08T03:25:31.856Z,94725.00
2023-05-08T03:26:31.883Z,94721.00
2023-05-08T03:27:31.904Z,94723.00
2023-05-08T03:28:31.937Z,94721.00
2023-05-08T03:29:32.005Z,94719.00
2023-05-08T03:30:32.013Z,94717.00
2023-05-08T03:31:32.142Z,94717.00
2023-05-08T03:32:32.094Z,94715.00
2023-05-08T03:33:32.104Z,94717.00
2023-05-08T03:34:32.133Z,94717.00
2023-05-08T03:35:32.226Z,94717.00
2023-05-08T03:36:32.222Z,94715.00
2023-05-08T03:37:32.273Z,94717.00
2023-05-08T03:38:32.332Z,94717.00
2023-05-08T03:39:32.354Z,94717.00
2023-05-08T03:40:32.327Z,94717.00
2023-05-08T03:41:32.395Z,94719.00
2023-05-08T03:42:32.514Z,94719.00
2023-05-08T03:43:32.428Z,94721.00
2023-05-08T03:44:32.553Z,94721.00
2023-05-08T03:45:32.503Z,94723.00
2023-05-08T03:46:32.584Z,94723.00
2023-05-08T03:47:32.623Z,94723.00
2023-05-08T03:48:32.608Z,94721.00
2023-05-08T03:49:32.699Z,94723.00
2023-05-08T03:50:32.700Z,94721.00
2023-05-08T03:51:32.737Z,94721.00
2023-05-08T03:52:32.769Z,94723.00
2023-05-08T03:53:32.807Z,94723.00
2023-05-08T03:54:32.860Z,94725.00
2023-05-08T03:55:32.913Z,94723.00
2023-05-08T03:56:32.951Z,94725.00
2023-05-08T03:57:32.952Z,94725.00
2023-05-08T03:58:32.976Z,94723.00
2023-05-08T03:59:33.024Z,94723.00
2023-05-08T04:00:33.097Z,94723.00
2023-05-08T04:01:33.115Z,94723.00
2023-05-08T04:02:33.312Z,94727.00
2023-05-08T04:03:33.297Z,94729.00
2023-05-08T04:04:33.211Z,94727.00
2023-05-08T04:05:33.275Z,94727.00
2023-05-08T04:06:45.774Z,94729.00
2023-05-08T04:07:34.289Z,94733.00
2023-05-08T04:08:33.267Z,94731.00
2023-05-08T04:09:33.283Z,94735.00
2023-05-08T04:10:33.274Z,94731.00
2023-05-08T04:11:33.258Z,94733.00
2023-05-08T04:12:33.242Z,94733.00
2023-05-08T04:13:33.343Z,94741.00
2023-05-08T04:14:33.239Z,94739.00
2023-05-08T04:15:33.236Z,94739.00
2023-05-08T04:16:33.229Z,94741.00
2023-05-08T04:17:33.282Z,94741.00
2023-05-08T04:18:33.200Z,94743.00
2023-05-08T04:19:33.213Z,94747.00
2023-05-08T04:20:33.281Z,94747.00
2023-05-08T04:21:33.231Z,94747.00
2023-05-08T04:22:33.260Z,94747.00
2023-05-08T04:23:33.295Z,94747.00
2023-05-08T04:24:33.319Z,94747.00
2023-05-08T04:25:33.359Z,94745.00
2023-05-08T04:26:33.377Z,94745.00
2023-05-08T04:27:33.438Z,94747.00
2023-05-08T04:28:33.468Z,94747.00
2023-05-08T04:29:33.490Z,94747.00
2023-05-08T04:30:33.588Z,94745.00
2023-05-08T04:31:33.583Z,94749.00
2023-05-08T04:32:33.594Z,94751.00
2023-05-08T04:33:34.566Z,94752.00
2023-05-08T04:34:33.730Z,94754.00
2023-05-08T04:35:33.680Z,94756.00
2023-05-08T04:36:33.710Z,94758.00
2023-05-08T04:37:33.773Z,94760.00
2023-05-08T04:38:33.778Z,94760.00
2023-05-08T04:39:33.808Z,94762.00
2023-05-08T04:40:33.846Z,94762.00
2023-05-08T04:41:33.973Z,94762.00
2023-05-08T04:42:33.921Z,94762.00
2023-05-08T04:43:33.942Z,94764.00
2023-05-08T04:44:33.980Z,94764.00
2023-05-08T04:45:34.047Z,94764.00
2023-05-08T04:46:34.135Z,94764.00
2023-05-08T04:47:34.127Z,94764.00
2023-05-08T04:48:34.113Z,94764.00
2023-05-08T04:49:34.154Z,94762.00
2023-05-08T04:50:34.201Z,94764.00
2023-05-08T04:51:34.240Z,94766.00
2023-05-08T04:52:34.256Z,94766.00
2023-05-08T04:53:34.284Z,94768.00
2023-05-08T04:54:34.357Z,94768.00
2023-05-08T04:55:34.394Z,94768.00
2023-05-08T04:56:34.438Z,94766.00
2023-05-08T04:57:34.444Z,94772.00
2023-05-08T04:58:34.468Z,94770.00
2023-05-08T04:59:34.521Z,94774.00
2023-05-08T05:00:34.549Z,94772.00
2023-05-08T05:01:34.590Z,94776.00
2023-05-08T05:02:34.641Z,94774.00
2023-05-08T05:03:34.712Z,94772.00
2023-05-08T05:04:34.690Z,94772.00
2023-05-08T05:05:35.008Z,94774.00
2023-05-08T05:06:34.758Z,94774.00
2023-05-08T05:07:34.822Z,94774.00
2023-05-08T05:08:34.854Z,94778.00
2023-05-08T05:09:34.967Z,94776.00
2023-05-08T05:10:34.936Z,94780.00
2023-05-08T05:11:34.963Z,94780.00
2023-05-08T05:12:35.025Z,94778.00
2023-05-08T05:13:35.037Z,94776.00
2023-05-08T05:14:35.081Z,94776.00
2023-05-08T05:15:35.112Z,94780.00
2023-05-08T05:16:35.232Z,94780.00
2023-05-08T05:17:35.286Z,94782.00
2023-05-08T05:18:35.243Z,94784.00
2023-05-08T05:19:35.264Z,94782.00
2023-05-08T05:20:35.301Z,94788.00
2023-05-08T05:21:35.379Z,94788.00
2023-05-08T05:22:35.473Z,94788.00
2023-05-08T05:23:35.436Z,94790.00
2023-05-08T05:24:35.512Z,94788.00
2023-05-08T05:25:35.575Z,94790.00
2023-05-08T05:26:36.953Z,94794.00
2023-05-08T05:27:35.703Z,94796.00
2023-05-08T05:28:35.735Z,94794.00
2023-05-08T05:29:35.757Z,94790.00
2023-05-08T05:30:35.824Z,94790.00
2023-05-08T05:31:35.871Z,94790.00
2023-05-08T05:32:35.957Z,94792.00
2023-05-08T05:33:36.075Z,94796.00
2023-05-08T05:34:35.987Z,94796.00
2023-05-08T05:35:36.112Z,94796.00
2023-05-08T05:36:36.190Z,94796.00
2023-05-08T05:37:36.653Z,94799.00
2023-05-08T05:38:36.222Z,94799.00
2023-05-08T05:39:36.266Z,94801.00
2023-05-08T05:40:36.591Z,94799.00
2023-05-08T05:41:36.410Z,94801.00
2023-05-08T05:42:36.603Z,94805.00
2023-05-08T05:43:36.413Z,94807.00
2023-05-08T05:44:36.412Z,94809.00
2023-05-08T05:45:36.471Z,94805.00
2023-05-08T05:46:36.822Z,94809.00
2023-05-08T05:47:36.642Z,94809.00
2023-05-08T05:48:36.583Z,94809.00
2023-05-08T05:49:36.657Z,94809.00
2023-05-08T05:50:36.645Z,94811.00
2023-05-08T05:51:36.690Z,94811.00
2023-05-08T05:52:36.751Z,94815.00
2023-05-08T05:53:36.886Z,94811.00
2023-05-08T05:54:37.793Z,94813.00
2023-05-08T05:55:36.853Z,94811.00
2023-05-08T05:56:36.862Z,94813.00
2023-05-08T05:57:36.872Z,94811.00
2023-05-08T05:58:36.764Z,94817.00
2023-05-08T05:59:36.793Z,94813.00
2023-05-08T06:00:36.892Z,94815.00
2023-05-08T06:01:36.767Z,94819.00
2023-05-08T06:02:37.014Z,94817.00
2023-05-08T06:03:37.778Z,94821.00
2023-05-08T06:04:36.897Z,94821.00
2023-05-08T06:05:36.826Z,94821.00
2023-05-08T06:06:36.798Z,94819.00
2023-05-08T06:07:36.954Z,94821.00
2023-05-08T06:08:36.799Z,94823.00
2023-05-08T06:09:36.694Z,94827.00
2023-05-08T06:10:36.703Z,94823.00
2023-05-08T06:11:36.781Z,94825.00
2023-05-08T06:12:36.784Z,94825.00
2023-05-08T06:13:36.736Z,94827.00
2023-05-08T06:14:36.712Z,94827.00
2023-05-08T06:15:36.729Z,94831.00
2023-05-08T06:16:37.734Z,94829.00
2023-05-08T06:17:36.706Z,94833.00
2023-05-08T06:18:36.637Z,94835.00
2023-05-08T06:19:36.664Z,94831.00
2023-05-08T06:20:36.631Z,94831.00
2023-05-08T06:21:36.629Z,94831.00
2023-05-08T06:22:36.672Z,94831.00
2023-05-08T06:23:36.622Z,94833.00
2023-05-08T06:24:36.795Z,94833.00
2023-05-08T06:25:36.597Z,94835.00
2023-05-08T06:26:36.583Z,94833.00
2023-05-08T06:27:36.582Z,94833.00
2023-05-08T06:28:37.597Z,94833.00
2023-05-08T06:29:36.582Z,94833.00
2023-05-08T06:30:39.667Z,94835.00
2023-05-08T06:31:36.721Z,94835.00
2023-05-08T06:32:36.626Z,94835.00
2023-05-08T06:33:36.541Z,94833.00
2023-05-08T06:34:36.555Z,94839.00
2023-05-08T06:35:37.145Z,94835.00
2023-05-08T06:36:36.637Z,94839.00
2023-05-08T06:37:37.147Z,94841.00
2023-05-08T06:38:37.352Z,94841.00
2023-05-08T06:39:36.501Z,94841.00
2023-05-08T06:40:40.998Z,94843.00
2023-05-08T06:41:36.495Z,94841.00
2023-05-08T06:42:37.121Z,94843.00
2023-05-08T06:43:36.488Z,94843.00
2023-05-08T06:44:36.462Z,94843.00
2023-05-08T06:45:36.612Z,94843.00
2023-05-08T06:46:37.064Z,94843.00
2023-05-08T06:47:36.887Z,94841.00
2023-05-08T06:48:36.979Z,94841.00
2023-05-08T06:49:36.503Z,94839.00
2023-05-08T06:50:37.066Z,94837.00
2023-05-08T06:51:37.052Z,94841.00
2023-05-08T06:52:38.297Z,94839.00
2023-05-08T06:53:36.472Z,94841.00
2023-05-08T06:54:36.464Z,94841.00
2023-05-08T06:55:36.669Z,94843.00
2023-05-08T06:56:36.701Z,94839.00
2023-05-08T06:57:37.481Z,94841.00
2023-05-08T06:58:36.583Z,94841.00
2023-05-08T06:59:36.633Z,94839.00
2023-05-08T07:00:36.668Z,94839.00
2023-05-08T07:01:36.735Z,94841.00
2023-05-08T07:02:36.946Z,94841.00
2023-05-08T07:03:37.956Z,94843.00
2023-05-08T07:04:36.762Z,94845.00
2023-05-08T07:05:36.908Z,94845.00
2023-05-08T07:06:36.779Z,94846.00
2023-05-08T07:07:37.130Z,94848.00
2023-05-08T07:08:36.790Z,94848.00
2023-05-08T07:09:38.659Z,94846.00
2023-05-08T07:10:39.307Z,94848.00
2023-05-08T07:11:36.954Z,94845.00
2023-05-08T07:12:37.296Z,94846.00
2023-05-08T07:13:36.989Z,94846.00
2023-05-08T07:14:36.974Z,94850.00
2023-05-08T07:15:38.023Z,94846.00
2023-05-08T07:16:37.114Z,94852.00
2023-05-08T07:17:37.058Z,94854.00
2023-05-08T07:18:37.250Z,94854.00
2023-05-08T07:19:37.432Z,94856.00
2023-05-08T07:20:37.162Z,94854.00
2023-05-08T07:21:37.134Z,94854.00
2023-05-08T07:22:37.049Z,94850.00
2023-05-08T07:23:37.078Z,94852.00
2023-05-08T07:24:37.453Z,94850.00
2023-05-08T07:25:37.086Z,94850.00
2023-05-08T07:26:37.085Z,94850.00
2023-05-08T07:27:37.314Z,94852.00
2023-05-08T07:28:37.105Z,94852.00
2023-05-08T07:29:37.100Z,94852.00
2023-05-08T07:30:37.552Z,94850.00
2023-05-08T07:31:37.630Z,94850.00
2023-05-08T07:32:37.507Z,94850.00
2023-05-08T07:33:37.221Z,94852.00
2023-05-08T07:34:37.141Z,94848.00
2023-05-08T07:35:37.165Z,94848.00
2023-05-08T07:36:37.165Z,94848.00
2023-05-08T07:37:37.200Z,94850.00
2023-05-08T07:38:37.173Z,94848.00
2023-05-08T07:39:37.180Z,94850.00
2023-05-08T07:40:38.136Z,94850.00
2023-05-08T07:41:37.265Z,94852.00
2023-05-08T07:42:37.653Z,94852.00
2023-05-08T07:43:37.243Z,94848.00
2023-05-08T07:44:43.740Z,94854.00
2023-05-08T07:45:38.257Z,94848.00
2023-05-08T07:46:37.267Z,94850.00
2023-05-08T07:47:37.315Z,94850.00
2023-05-08T07:48:37.834Z,94850.00
2023-05-08T07:49:37.203Z,94852.00
2023-05-08T07:50:37.218Z,94852.00
2023-05-08T07:51:37.197Z,94852.00
2023-05-08T07:52:37.671Z,94852.00
2023-05-08T07:53:37.179Z,94854.00
2023-05-08T07:54:37.166Z,94856.00
2023-05-08T07:55:37.202Z,94856.00
2023-05-08T07:56:37.141Z,94858.00
2023-05-08T07:57:37.169Z,94854.00
2023-05-08T07:58:37.126Z,94856.00
2023-05-08T07:59:37.126Z,94852.00
2023-05-08T08:00:37.157Z,94852.00
2023-05-08T08:01:37.163Z,94852.00
2023-05-08T08:02:37.285Z,94854.00
2023-05-08T08:03:37.151Z,94852.00
2023-05-08T08:04:37.258Z,94852.00
2023-05-08T08:05:37.171Z,94852.00
2023-05-08T08:06:37.116Z,94848.00
2023-05-08T08:07:37.185Z,94852.00
2023-05-08T08:08:37.090Z,94852.00
2023-05-08T08:09:37.079Z,94850.00
2023-05-08T08:10:37.059Z,94850.00
2023-05-08T08:11:37.060Z,94848.00
2023-05-08T08:12:37.293Z,94850.00
2023-05-08T08:13:37.069Z,94852.00
2023-05-08T08:14:37.020Z,94854.00
2023-05-08T08:15:37.016Z,94854.00
2023-05-08T08:16:37.084Z,94854.00
2023-05-08T08:17:37.221Z,94854.00
2023-05-08T08:18:37.088Z,94856.00
2023-05-08T08:19:37.017Z,94856.00
2023-05-08T08:20:37.017Z,94852.00
2023-05-08T08:21:36.968Z,94854.00
2023-05-08T08:22:37.304Z,94854.00
2023-05-08T08:23:36.992Z,94854.00
2023-05-08T08:24:36.946Z,94856.00
2023-05-08T08:25:37.153Z,94854.00
2023-05-08T08:26:37.014Z,94858.00
2023-05-08T08:27:37.045Z,94856.00
2023-05-08T08:28:37.088Z,94856.00
2023-05-08T08:29:37.108Z,94856.00
2023-05-08T08:30:37.187Z,94854.00
2023-05-08T08:31:37.810Z,94854.00
2023-05-08T08:32:37.440Z,94856.00
2023-05-08T08:33:37.418Z,94854.00
2023-05-08T08:34:37.625Z,94856.00
2023-05-08T08:35:37.621Z,94856.00
2023-05-08T08:36:37.491Z,94852.00
2023-05-08T08:37:37.549Z,94854.00
2023-05-08T08:38:37.779Z,94854.00
2023-05-08T08:39:37.458Z,94852.00
2023-05-08T08:40:38.426Z,94852.00
2023-05-08T08:41:38.485Z,94846.00
2023-05-08T08:42:37.524Z,94850.00
2023-05-08T08:43:37.730Z,94850.00
2023-05-08T08:44:39.854Z,94848.00
2023-05-08T08:45:37.797Z,94850.00
2023-05-08T08:46:37.875Z,94850.00
2023-05-08T08:47:37.987Z,94850.00
2023-05-08T08:48:38.025Z,94848.00
2023-05-08T08:49:38.673Z,94846.00
2023-05-08T08:50:38.135Z,94845.00
2023-05-08T08:51:38.247Z,94845.00
2023-05-08T08:52:40.283Z,94848.00
2023-05-08T08:53:39.315Z,94846.00
2023-05-08T08:54:38.460Z,94846.00
2023-05-08T08:55:38.393Z,94846.00
2023-05-08T08:56:38.840Z,94846.00
2023-05-08T08:57:38.531Z,94843.00
2023-05-08T08:58:39.122Z,94848.00
2023-05-08T08:59:38.582Z,94846.00
2023-05-08T09:00:38.598Z,94848.00
2023-05-08T09:01:38.592Z,94846.00
2023-05-08T09:02:40.428Z,94848.00
2023-05-08T09:03:38.773Z,94846.00
2023-05-08T09:04:38.939Z,94848.00
2023-05-08T09:05:39.538Z,94848.00
2023-05-08T09:06:40.366Z,94846.00
2023-05-08T09:07:38.598Z,94846.00
2023-05-08T09:08:38.648Z,94848.00
2023-05-08T09:09:39.582Z,94846.00
2023-05-08T09:10:38.854Z,94846.00
2023-05-08T09:11:39.872Z,94848.00
2023-05-08T09:12:38.980Z,94846.00
2023-05-08T09:13:38.961Z,94848.00
2023-05-08T09:14:38.946Z,94846.00
2023-05-08T09:15:39.009Z,94846.00
2023-05-08T09:16:39.224Z,94845.00
2023-05-08T09:17:39.113Z,94846.00
2023-05-08T09:18:39.251Z,94845.00
2023-05-08T09:19:40.264Z,94843.00
2023-05-08T09:20:39.364Z,94848.00
2023-05-08T09:21:40.428Z,94848.00
2023-05-08T09:22:39.336Z,94846.00
2023-05-08T09:23:39.706Z,94845.00
2023-05-08T09:24:39.487Z,94848.00
2023-05-08T09:25:39.536Z,94848.00
2023-05-08T09:26:40.461Z,94845.00
2023-05-08T09:27:39.709Z,94845.00
2023-05-08T09:28:39.716Z,94845.00
2023-05-08T09:29:39.810Z,94845.00
2023-05-08T09:30:39.759Z,94845.00
2023-05-08T09:31:40.225Z,94846.00
2023-05-08T09:32:40.731Z,94846.00
2023-05-08T09:33:40.413Z,94845.00
2023-05-08T09:34:40.042Z,94845.00
2023-05-08T09:35:40.185Z,94843.00
2023-05-08T09:36:42.803Z,94846.00
2023-05-08T09:37:40.244Z,94846.00
2023-05-08T09:38:40.347Z,94846.00
2023-05-08T09:39:40.012Z,94846.00
2023-05-08T09:40:40.717Z,94846.00
2023-05-08T09:41:39.993Z,94846.00
2023-05-08T09:42:40.070Z,94846.00
2023-05-08T09:43:40.063Z,94845.00
2023-05-08T09:44:40.008Z,94846.00
2023-05-08T09:45:40.048Z,94848.00
2023-05-08T09:46:39.955Z,94846.00
2023-05-08T09:47:40.003Z,94848.00
2023-05-08T09:48:39.999Z,94848.00
2023-05-08T09:49:39.979Z,94848.00
2023-05-08T09:50:41.540Z,94850.00
2023-05-08T09:51:39.955Z,94850.00
2023-05-08T09:52:39.922Z,94850.00
2023-05-08T09:53:39.962Z,94850.00
2023-05-08T09:54:39.908Z,94854.00
2023-05-08T09:55:39.990Z,94852.00
2023-05-08T09:56:40.036Z,94852.00
2023-05-08T09:57:39.914Z,94854.00
2023-05-08T09:58:39.984Z,94854.00
2023-05-08T09:59:39.925Z,94856.00
2023-05-08T10:00:39.881Z,94858.00
2023-05-08T10:01:39.906Z,94856.00
2023-05-08T10:02:39.910Z,94858.00
2023-05-08T10:03:40.371Z,94852.00
2023-05-08T10:04:39.924Z,94848.00
2023-05-08T10:05:40.188Z,94848.00
2023-05-08T10:06:40.904Z,94850.00
2023-05-08T10:07:39.944Z,94848.00
2023-05-08T10:08:39.877Z,94848.00
2023-05-08T10:09:50.417Z,94850.00
2023-05-08T10:10:40.930Z,94848.00
2023-05-08T10:11:39.864Z,94848.00
2023-05-08T10:12:39.884Z,94846.00
2023-05-08T10:13:40.052Z,94848.00
2023-05-08T10:14:40.031Z,94848.00
2023-05-08T10:15:39.929Z,94848.00
2023-05-08T10:16:42.247Z,94846.00
2023-05-08T10:17:40.140Z,94848.00
2023-05-08T10:18:40.010Z,94846.00
2023-05-08T10:19:41.094Z,94846.00
2023-05-08T10:20:39.943Z,94848.00
2023-05-08T10:21:40.203Z,94846.00
2023-05-08T10:22:39.922Z,94845.00
2023-05-08T10:23:39.979Z,94845.00
2023-05-08T10:24:40.034Z,94843.00
2023-05-08T10:25:39.936Z,94843.00
2023-05-08T10:26:42.115Z,94843.00
2023-05-08T10:27:40.938Z,94841.00
2023-05-08T10:28:40.239Z,94841.00
2023-05-08T10:29:39.992Z,94843.00
2023-05-08T10:30:40.191Z,94839.00
2023-05-08T10:31:39.980Z,94837.00
2023-05-08T10:32:39.928Z,94837.00
2023-05-08T10:33:40.249Z,94835.00
2023-05-08T10:34:39.934Z,94835.00
2023-05-08T10:35:39.916Z,94833.00
2023-05-08T10:36:39.885Z,94835.00
2023-05-08T10:37:39.890Z,94831.00
2023-05-08T10:38:39.903Z,94833.00
2023-05-08T10:39:39.868Z,94831.00
2023-05-08T10:40:39.868Z,94833.00
2023-05-08T10:41:39.825Z,94833.00
2023-05-08T10:42:39.824Z,94829.00
2023-05-08T10:43:39.837Z,94825.00
2023-05-08T10:44:39.868Z,94825.00
2023-05-08T10:45:39.818Z,94827.00
2023-05-08T10:46:40.043Z,94821.00
2023-05-08T10:47:39.897Z,94823.00
2023-05-08T10:48:39.920Z,94817.00
2023-05-08T10:49:40.008Z,94815.00
2023-05-08T10:50:40.019Z,94813.00
2023-05-08T10:51:40.024Z,94813.00
2023-05-08T10:52:40.059Z,94815.00
2023-05-08T10:53:40.171Z,94811.00
2023-05-08T10:54:40.144Z,94809.00
2023-05-08T10:55:40.240Z,94805.00
2023-05-08T10:56:40.227Z,94807.00
2023-05-08T10:57:40.252Z,94805.00
2023-05-08T10:58:40.354Z,94807.00
2023-05-08T10:59:40.233Z,94803.00
2023-05-08T11:00:40.292Z,94801.00
2023-05-08T11:01:40.317Z,94799.00
2023-05-08T11:02:40.626Z,94799.00
2023-05-08T11:03:40.379Z,94799.00
2023-05-08T11:04:40.541Z,94798.00
2023-05-08T11:05:40.515Z,94796.00
2023-05-08T11:06:40.354Z,94792.00
2023-05-08T11:07:40.422Z,94788.00
2023-05-08T11:08:40.476Z,94788.00
2023-05-08T11:09:40.536Z,94790.00
2023-05-08T11:10:40.705Z,94790.00
2023-05-08T11:11:40.670Z,94788.00
2023-05-08T11:12:40.723Z,94784.00
2023-05-08T11:13:41.294Z,94784.00
2023-05-08T11:14:40.793Z,94780.00
2023-05-08T11:15:40.828Z,94780.00
2023-05-08T11:16:41.298Z,94776.00
2023-05-08T11:17:40.943Z,94776.00
2023-05-08T11:18:49.212Z,94774.00
2023-05-08T11:19:42.029Z,94772.00
2023-05-08T11:20:41.053Z,94770.00
2023-05-08T11:21:41.250Z,94770.00
2023-05-08T11:22:40.932Z,94768.00
2023-05-08T11:23:40.943Z,94766.00
2023-05-08T11:24:40.928Z,94764.00
2023-05-08T11:25:40.974Z,94762.00
2023-05-08T11:26:41.045Z,94758.00
2023-05-08T11:27:40.993Z,94760.00
2023-05-08T11:28:41.051Z,94756.00
2023-05-08T11:29:41.071Z,94756.00
2023-05-08T11:30:41.143Z,94752.00
2023-05-08T11:31:41.177Z,94754.00
2023-05-08T11:32:41.242Z,94751.00
2023-05-08T11:33:41.270Z,94749.00
2023-05-08T11:34:41.261Z,94752.00
2023-05-08T11:35:41.291Z,94751.00
2023-05-08T11:36:41.404Z,94747.00
2023-05-08T11:37:41.363Z,94751.00
2023-05-08T11:38:41.421Z,94745.00
2023-05-08T11:39:41.438Z,94749.00
2023-05-08T11:40:41.492Z,94747.00
2023-05-08T11:41:41.468Z,94743.00
2023-05-08T11:42:41.533Z,94747.00
2023-05-08T11:43:41.593Z,94743.00
2023-05-08T11:44:41.573Z,94745.00